sensor_id;sensor_type;location;lat;lon;timestamp;P1;durP1;ratioP1;P2;durP2;ratioP2
665;SDS011;315;48.738;9.126;2023-11-18T00:00:18;10.40;;;8.53;;
665;SDS011;315;48.738;9.126;2023-11-18T00:02:45;7.63;;;6.90;;
665;SDS011;315;48.738;9.126;2023-11-18T00:05:11;6.47;;;5.60;;
665;SDS011;315;48.738;9.126;2023-11-18T00:07:37;7.13;;;6.37;;
665;SDS011;315;48.738;9.126;2023-11-18T00:10:03;6.97;;;6.30;;
665;SDS011;315;48.738;9.126;2023-11-18T00:12:29;7.10;;;6.40;;
665;SDS011;315;48.738;9.126;2023-11-18T00:14:55;6.33;;;5.73;;
665;SDS011;315;48.738;9.126;2023-11-18T00:17:20;7.70;;;7.00;;
665;SDS011;315;48.738;9.126;2023-11-18T00:19:46;7.43;;;6.73;;
665;SDS011;315;48.738;9.126;2023-11-18T00:22:12;7.20;;;6.50;;
665;SDS011;315;48.738;9.126;2023-11-18T00:24:37;6.07;;;5.47;;
665;SDS011;315;48.738;9.126;2023-11-18T00:27:03;6.67;;;6.07;;
665;SDS011;315;48.738;9.126;2023-11-18T00:29:34;7.50;;;6.83;;
665;SDS011;315;48.738;9.126;2023-11-18T00:32:00;6.30;;;5.80;;
665;SDS011;315;48.738;9.126;2023-11-18T00:34:26;7.90;;;6.37;;
665;SDS011;315;48.738;9.126;2023-11-18T00:36:54;8.00;;;6.60;;
665;SDS011;315;48.738;9.126;2023-11-18T00:39:22;6.37;;;5.77;;
665;SDS011;315;48.738;9.126;2023-11-18T00:41:48;6.97;;;6.30;;
665;SDS011;315;48.738;9.126;2023-11-18T00:44:13;7.47;;;5.63;;
665;SDS011;315;48.738;9.126;2023-11-18T00:46:39;7.30;;;6.70;;
665;SDS011;315;48.738;9.126;2023-11-18T00:49:05;7.07;;;5.83;;
665;SDS011;315;48.738;9.126;2023-11-18T00:51:31;7.77;;;6.03;;
665;SDS011;315;48.738;9.126;2023-11-18T00:53:56;6.67;;;5.97;;
665;SDS011;315;48.738;9.126;2023-11-18T00:56:22;6.77;;;6.07;;
665;SDS011;315;48.738;9.126;2023-11-18T00:58:48;8.10;;;7.30;;
665;SDS011;315;48.738;9.126;2023-11-18T01:01:14;6.93;;;6.33;;
665;SDS011;315;48.738;9.126;2023-11-18T01:03:43;12.90;;;7.60;;
665;SDS011;315;48.738;9.126;2023-11-18T01:06:11;8.13;;;7.33;;
665;SDS011;315;48.738;9.126;2023-11-18T01:08:37;8.27;;;7.40;;
665;SDS011;315;48.738;9.126;2023-11-18T01:11:03;9.30;;;6.60;;
665;SDS011;315;48.738;9.126;2023-11-18T01:13:29;6.30;;;5.70;;
665;SDS011;315;48.738;9.126;2023-11-18T01:15:56;6.87;;;6.20;;
665;SDS011;315;48.738;9.126;2023-11-18T01:18:22;6.30;;;5.80;;
665;SDS011;315;48.738;9.126;2023-11-18T01:20:47;6.23;;;5.63;;
665;SDS011;315;48.738;9.126;2023-11-18T01:23:13;6.10;;;5.50;;
665;SDS011;315;48.738;9.126;2023-11-18T01:25:39;6.73;;;6.10;;
665;SDS011;315;48.738;9.126;2023-11-18T01:28:05;6.07;;;5.50;;
665;SDS011;315;48.738;9.126;2023-11-18T01:30:31;7.23;;;6.00;;
665;SDS011;315;48.738;9.126;2023-11-18T01:32:58;5.77;;;5.20;;
665;SDS011;315;48.738;9.126;2023-11-18T01:35:27;6.40;;;5.70;;
665;SDS011;315;48.738;9.126;2023-11-18T01:37:53;5.80;;;5.30;;
665;SDS011;315;48.738;9.126;2023-11-18T01:40:20;4.97;;;4.57;;
665;SDS011;315;48.738;9.126;2023-11-18T01:42:45;6.97;;;5.40;;
665;SDS011;315;48.738;9.126;2023-11-18T01:45:11;7.00;;;6.03;;
665;SDS011;315;48.738;9.126;2023-11-18T01:47:39;7.10;;;6.40;;
665;SDS011;315;48.738;9.126;2023-11-18T01:50:06;5.97;;;5.40;;
665;SDS011;315;48.738;9.126;2023-11-18T01:52:34;6.60;;;5.90;;
665;SDS011;315;48.738;9.126;2023-11-18T01:55:00;6.90;;;6.20;;
665;SDS011;315;48.738;9.126;2023-11-18T01:57:28;7.07;;;6.37;;
665;SDS011;315;48.738;9.126;2023-11-18T01:59:54;7.93;;;6.50;;
665;SDS011;315;48.738;9.126;2023-11-18T02:02:21;5.53;;;5.03;;
665;SDS011;315;48.738;9.126;2023-11-18T02:04:46;6.20;;;5.60;;
665;SDS011;315;48.738;9.126;2023-11-18T02:07:13;6.23;;;5.63;;
665;SDS011;315;48.738;9.126;2023-11-18T02:09:40;6.20;;;5.33;;
665;SDS011;315;48.738;9.126;2023-11-18T02:12:23;5.93;;;5.33;;
665;SDS011;315;48.738;9.126;2023-11-18T02:15:06;8.70;;;4.90;;
665;SDS011;315;48.738;9.126;2023-11-18T02:17:37;5.30;;;4.80;;
665;SDS011;315;48.738;9.126;2023-11-18T02:20:05;5.80;;;5.10;;
665;SDS011;315;48.738;9.126;2023-11-18T02:22:41;7.20;;;4.80;;
665;SDS011;315;48.738;9.126;2023-11-18T02:25:08;4.57;;;4.17;;
665;SDS011;315;48.738;9.126;2023-11-18T02:27:35;5.43;;;4.80;;
665;SDS011;315;48.738;9.126;2023-11-18T02:30:02;5.20;;;4.70;;
665;SDS011;315;48.738;9.126;2023-11-18T02:35:15;6.97;;;6.27;;
665;SDS011;315;48.738;9.126;2023-11-18T02:37:47;5.23;;;4.57;;
665;SDS011;315;48.738;9.126;2023-11-18T02:40:36;4.97;;;4.27;;
665;SDS011;315;48.738;9.126;2023-11-18T02:43:01;4.53;;;3.73;;
665;SDS011;315;48.738;9.126;2023-11-18T02:45:32;5.17;;;4.77;;
665;SDS011;315;48.738;9.126;2023-11-18T02:48:00;5.07;;;4.50;;
665;SDS011;315;48.738;9.126;2023-11-18T02:50:26;4.97;;;4.50;;
665;SDS011;315;48.738;9.126;2023-11-18T02:52:52;5.43;;;4.47;;
665;SDS011;315;48.738;9.126;2023-11-18T02:55:18;5.23;;;4.73;;
665;SDS011;315;48.738;9.126;2023-11-18T02:57:48;5.03;;;4.53;;
665;SDS011;315;48.738;9.126;2023-11-18T03:00:14;4.73;;;4.33;;
665;SDS011;315;48.738;9.126;2023-11-18T03:02:46;4.43;;;4.07;;
665;SDS011;315;48.738;9.126;2023-11-18T03:05:16;6.13;;;4.60;;
665;SDS011;315;48.738;9.126;2023-11-18T03:07:43;4.63;;;4.23;;
665;SDS011;315;48.738;9.126;2023-11-18T03:10:12;5.10;;;4.40;;
665;SDS011;315;48.738;9.126;2023-11-18T03:12:45;4.97;;;4.47;;
665;SDS011;315;48.738;9.126;2023-11-18T03:15:20;5.20;;;4.70;;
665;SDS011;315;48.738;9.126;2023-11-18T03:17:47;11.73;;;8.00;;
665;SDS011;315;48.738;9.126;2023-11-18T03:20:16;8.27;;;7.10;;
665;SDS011;315;48.738;9.126;2023-11-18T03:22:42;5.33;;;4.83;;
665;SDS011;315;48.738;9.126;2023-11-18T03:25:09;6.33;;;4.50;;
665;SDS011;315;48.738;9.126;2023-11-18T03:27:35;4.93;;;4.53;;
665;SDS011;315;48.738;9.126;2023-11-18T03:30:01;4.07;;;3.67;;
665;SDS011;315;48.738;9.126;2023-11-18T03:32:27;8.93;;;5.00;;
665;SDS011;315;48.738;9.126;2023-11-18T03:34:53;4.70;;;4.30;;
665;SDS011;315;48.738;9.126;2023-11-18T03:37:19;4.47;;;4.07;;
665;SDS011;315;48.738;9.126;2023-11-18T03:39:48;11.73;;;8.87;;
665;SDS011;315;48.738;9.126;2023-11-18T03:42:13;6.40;;;5.80;;
665;SDS011;315;48.738;9.126;2023-11-18T03:44:40;5.63;;;4.73;;
665;SDS011;315;48.738;9.126;2023-11-18T03:47:06;4.93;;;4.50;;
665;SDS011;315;48.738;9.126;2023-11-18T03:49:31;5.07;;;4.57;;
665;SDS011;315;48.738;9.126;2023-11-18T03:51:57;4.70;;;4.30;;
665;SDS011;315;48.738;9.126;2023-11-18T03:54:22;4.67;;;4.20;;
665;SDS011;315;48.738;9.126;2023-11-18T03:56:48;5.27;;;4.57;;
665;SDS011;315;48.738;9.126;2023-11-18T03:59:13;5.93;;;5.07;;
665;SDS011;315;48.738;9.126;2023-11-18T04:01:39;6.27;;;5.67;;
665;SDS011;315;48.738;9.126;2023-11-18T04:04:05;4.83;;;4.40;;
665;SDS011;315;48.738;9.126;2023-11-18T04:06:31;5.80;;;5.30;;
665;SDS011;315;48.738;9.126;2023-11-18T04:08:57;4.93;;;4.53;;
665;SDS011;315;48.738;9.126;2023-11-18T04:11:22;4.70;;;4.27;;
665;SDS011;315;48.738;9.126;2023-11-18T04:13:48;5.17;;;4.67;;
665;SDS011;315;48.738;9.126;2023-11-18T04:16:14;4.30;;;3.90;;
665;SDS011;315;48.738;9.126;2023-11-18T04:18:44;3.70;;;3.40;;
665;SDS011;315;48.738;9.126;2023-11-18T04:21:11;4.57;;;4.17;;
665;SDS011;315;48.738;9.126;2023-11-18T04:23:38;4.20;;;3.90;;
665;SDS011;315;48.738;9.126;2023-11-18T04:26:05;4.10;;;3.80;;
665;SDS011;315;48.738;9.126;2023-11-18T04:28:32;4.43;;;4.03;;
665;SDS011;315;48.738;9.126;2023-11-18T04:30:58;3.70;;;3.40;;
665;SDS011;315;48.738;9.126;2023-11-18T04:33:24;4.20;;;3.80;;
665;SDS011;315;48.738;9.126;2023-11-18T04:35:50;5.33;;;3.50;;
665;SDS011;315;48.738;9.126;2023-11-18T04:38:16;4.13;;;3.60;;
665;SDS011;315;48.738;9.126;2023-11-18T04:40:42;3.80;;;3.50;;
665;SDS011;315;48.738;9.126;2023-11-18T04:43:09;5.27;;;3.57;;
665;SDS011;315;48.738;9.126;2023-11-18T04:45:35;3.70;;;3.40;;
665;SDS011;315;48.738;9.126;2023-11-18T04:48:01;3.90;;;3.40;;
665;SDS011;315;48.738;9.126;2023-11-18T04:50:27;3.63;;;3.33;;
665;SDS011;315;48.738;9.126;2023-11-18T04:52:55;4.23;;;3.83;;
665;SDS011;315;48.738;9.126;2023-11-18T04:55:21;4.50;;;4.10;;
665;SDS011;315;48.738;9.126;2023-11-18T04:57:46;3.70;;;3.40;;
665;SDS011;315;48.738;9.126;2023-11-18T05:00:12;5.80;;;4.07;;
665;SDS011;315;48.738;9.126;2023-11-18T05:02:41;3.03;;;2.83;;
665;SDS011;315;48.738;9.126;2023-11-18T05:05:08;3.57;;;3.27;;
665;SDS011;315;48.738;9.126;2023-11-18T05:07:34;4.87;;;2.87;;
665;SDS011;315;48.738;9.126;2023-11-18T05:10:00;3.37;;;3.07;;
665;SDS011;315;48.738;9.126;2023-11-18T05:12:26;3.80;;;3.50;;
665;SDS011;315;48.738;9.126;2023-11-18T05:14:54;3.70;;;3.23;;
665;SDS011;315;48.738;9.126;2023-11-18T05:17:20;2.93;;;2.63;;
665;SDS011;315;48.738;9.126;2023-11-18T05:19:46;5.70;;;3.73;;
665;SDS011;315;48.738;9.126;2023-11-18T05:22:13;3.53;;;3.20;;
665;SDS011;315;48.738;9.126;2023-11-18T05:24:38;3.80;;;3.50;;
665;SDS011;315;48.738;9.126;2023-11-18T05:27:04;3.77;;;3.47;;
665;SDS011;315;48.738;9.126;2023-11-18T05:29:30;4.70;;;3.57;;
665;SDS011;315;48.738;9.126;2023-11-18T05:31:56;4.13;;;3.27;;
665;SDS011;315;48.738;9.126;2023-11-18T05:34:21;4.13;;;3.83;;
665;SDS011;315;48.738;9.126;2023-11-18T05:36:47;3.57;;;3.27;;
665;SDS011;315;48.738;9.126;2023-11-18T05:39:16;3.87;;;3.57;;
665;SDS011;315;48.738;9.126;2023-11-18T05:41:41;3.73;;;3.43;;
665;SDS011;315;48.738;9.126;2023-11-18T05:44:10;4.83;;;4.30;;
665;SDS011;315;48.738;9.126;2023-11-18T05:46:42;5.60;;;4.20;;
665;SDS011;315;48.738;9.126;2023-11-18T05:49:11;4.13;;;3.43;;
665;SDS011;315;48.738;9.126;2023-11-18T05:51:38;5.93;;;4.10;;
665;SDS011;315;48.738;9.126;2023-11-18T05:54:05;5.20;;;4.07;;
665;SDS011;315;48.738;9.126;2023-11-18T05:56:31;4.30;;;3.90;;
665;SDS011;315;48.738;9.126;2023-11-18T05:58:57;5.47;;;3.90;;
665;SDS011;315;48.738;9.126;2023-11-18T06:01:23;5.67;;;4.83;;
665;SDS011;315;48.738;9.126;2023-11-18T06:03:52;4.80;;;4.30;;
665;SDS011;315;48.738;9.126;2023-11-18T06:06:18;5.83;;;4.30;;
665;SDS011;315;48.738;9.126;2023-11-18T06:08:46;9.30;;;4.93;;
665;SDS011;315;48.738;9.126;2023-11-18T06:11:13;5.10;;;4.60;;
665;SDS011;315;48.738;9.126;2023-11-18T06:16:14;5.83;;;5.33;;
665;SDS011;315;48.738;9.126;2023-11-18T06:18:41;5.83;;;5.10;;
665;SDS011;315;48.738;9.126;2023-11-18T06:21:10;5.33;;;4.37;;
665;SDS011;315;48.738;9.126;2023-11-18T06:23:39;4.50;;;3.97;;
665;SDS011;315;48.738;9.126;2023-11-18T06:26:06;6.17;;;4.83;;
665;SDS011;315;48.738;9.126;2023-11-18T06:28:32;5.83;;;4.50;;
665;SDS011;315;48.738;9.126;2023-11-18T06:30:59;7.80;;;6.30;;
665;SDS011;315;48.738;9.126;2023-11-18T06:33:24;8.40;;;5.93;;
665;SDS011;315;48.738;9.126;2023-11-18T06:35:52;7.90;;;5.60;;
665;SDS011;315;48.738;9.126;2023-11-18T06:38:21;8.70;;;5.93;;
665;SDS011;315;48.738;9.126;2023-11-18T06:40:47;6.83;;;6.13;;
665;SDS011;315;48.738;9.126;2023-11-18T06:43:17;7.77;;;6.97;;
665;SDS011;315;48.738;9.126;2023-11-18T06:45:43;7.83;;;7.03;;
665;SDS011;315;48.738;9.126;2023-11-18T06:48:09;9.33;;;7.70;;
665;SDS011;315;48.738;9.126;2023-11-18T06:50:35;8.43;;;7.53;;
665;SDS011;315;48.738;9.126;2023-11-18T06:53:01;9.43;;;8.43;;
665;SDS011;315;48.738;9.126;2023-11-18T06:55:26;9.33;;;8.13;;
665;SDS011;315;48.738;9.126;2023-11-18T06:57:52;9.90;;;8.90;;
665;SDS011;315;48.738;9.126;2023-11-18T07:00:20;10.10;;;8.37;;
665;SDS011;315;48.738;9.126;2023-11-18T07:02:46;14.30;;;9.00;;
665;SDS011;315;48.738;9.126;2023-11-18T07:05:12;10.80;;;8.43;;
665;SDS011;315;48.738;9.126;2023-11-18T07:07:39;11.43;;;8.10;;
665;SDS011;315;48.738;9.126;2023-11-18T07:10:05;8.70;;;7.57;;
665;SDS011;315;48.738;9.126;2023-11-18T07:12:34;11.13;;;7.80;;
665;SDS011;315;48.738;9.126;2023-11-18T07:15:02;12.13;;;8.53;;
665;SDS011;315;48.738;9.126;2023-11-18T07:17:29;13.00;;;9.80;;
665;SDS011;315;48.738;9.126;2023-11-18T07:19:54;22.60;;;9.10;;
665;SDS011;315;48.738;9.126;2023-11-18T07:22:20;9.17;;;7.40;;
665;SDS011;315;48.738;9.126;2023-11-18T07:24:46;8.23;;;7.40;;
665;SDS011;315;48.738;9.126;2023-11-18T07:27:11;8.70;;;7.70;;
665;SDS011;315;48.738;9.126;2023-11-18T07:29:38;10.13;;;6.47;;
665;SDS011;315;48.738;9.126;2023-11-18T07:32:03;6.60;;;6.10;;
665;SDS011;315;48.738;9.126;2023-11-18T07:34:30;9.37;;;6.97;;
665;SDS011;315;48.738;9.126;2023-11-18T07:36:58;9.37;;;6.50;;
665;SDS011;315;48.738;9.126;2023-11-18T07:39:24;6.50;;;5.93;;
665;SDS011;315;48.738;9.126;2023-11-18T07:41:54;7.03;;;5.63;;
665;SDS011;315;48.738;9.126;2023-11-18T07:44:24;6.20;;;5.60;;
665;SDS011;315;48.738;9.126;2023-11-18T07:46:50;5.40;;;4.90;;
665;SDS011;315;48.738;9.126;2023-11-18T07:49:15;6.70;;;5.53;;
665;SDS011;315;48.738;9.126;2023-11-18T07:51:41;6.00;;;5.40;;
665;SDS011;315;48.738;9.126;2023-11-18T07:54:07;8.03;;;5.93;;
665;SDS011;315;48.738;9.126;2023-11-18T07:56:34;5.47;;;5.07;;
665;SDS011;315;48.738;9.126;2023-11-18T07:59:01;6.70;;;5.73;;
665;SDS011;315;48.738;9.126;2023-11-18T08:01:28;6.07;;;4.90;;
665;SDS011;315;48.738;9.126;2023-11-18T08:03:55;8.10;;;5.80;;
665;SDS011;315;48.738;9.126;2023-11-18T08:06:20;6.00;;;4.90;;
665;SDS011;315;48.738;9.126;2023-11-18T08:08:46;5.77;;;5.10;;
665;SDS011;315;48.738;9.126;2023-11-18T08:11:13;5.77;;;5.27;;
665;SDS011;315;48.738;9.126;2023-11-18T08:13:39;5.83;;;5.33;;
665;SDS011;315;48.738;9.126;2023-11-18T08:16:04;7.23;;;6.03;;
665;SDS011;315;48.738;9.126;2023-11-18T08:18:33;7.67;;;5.70;;
665;SDS011;315;48.738;9.126;2023-11-18T08:21:00;5.03;;;4.53;;
665;SDS011;315;48.738;9.126;2023-11-18T08:23:26;4.77;;;4.37;;
665;SDS011;315;48.738;9.126;2023-11-18T08:25:56;5.97;;;4.03;;
665;SDS011;315;48.738;9.126;2023-11-18T08:28:22;6.00;;;5.50;;
665;SDS011;315;48.738;9.126;2023-11-18T08:30:47;5.87;;;5.33;;
665;SDS011;315;48.738;9.126;2023-11-18T08:33:13;6.77;;;4.70;;
665;SDS011;315;48.738;9.126;2023-11-18T08:35:39;9.03;;;4.20;;
665;SDS011;315;48.738;9.126;2023-11-18T08:38:07;5.23;;;4.70;;
665;SDS011;315;48.738;9.126;2023-11-18T08:40:32;4.73;;;4.30;;
665;SDS011;315;48.738;9.126;2023-11-18T08:42:59;3.97;;;3.67;;
665;SDS011;315;48.738;9.126;2023-11-18T08:45:26;4.23;;;3.87;;
665;SDS011;315;48.738;9.126;2023-11-18T08:47:54;7.10;;;6.40;;
665;SDS011;315;48.738;9.126;2023-11-18T08:50:23;4.20;;;3.80;;
665;SDS011;315;48.738;9.126;2023-11-18T08:52:50;6.33;;;4.50;;
665;SDS011;315;48.738;9.126;2023-11-18T08:55:22;4.53;;;4.13;;
665;SDS011;315;48.738;9.126;2023-11-18T08:58:03;3.87;;;3.57;;
665;SDS011;315;48.738;9.126;2023-11-18T09:00:40;5.03;;;3.43;;
665;SDS011;315;48.738;9.126;2023-11-18T09:03:16;3.70;;;3.50;;
665;SDS011;315;48.738;9.126;2023-11-18T09:05:50;3.50;;;3.20;;
665;SDS011;315;48.738;9.126;2023-11-18T09:08:22;3.77;;;3.40;;
665;SDS011;315;48.738;9.126;2023-11-18T09:10:57;4.10;;;3.33;;
665;SDS011;315;48.738;9.126;2023-11-18T09:13:23;2.73;;;2.13;;
665;SDS011;315;48.738;9.126;2023-11-18T09:18:25;3.60;;;2.67;;
665;SDS011;315;48.738;9.126;2023-11-18T09:20:52;4.00;;;2.80;;
665;SDS011;315;48.738;9.126;2023-11-18T09:23:24;5.10;;;2.47;;
665;SDS011;315;48.738;9.126;2023-11-18T09:25:50;2.23;;;2.13;;
665;SDS011;315;48.738;9.126;2023-11-18T09:28:18;2.70;;;2.50;;
665;SDS011;315;48.738;9.126;2023-11-18T09:30:49;3.80;;;3.37;;
665;SDS011;315;48.738;9.126;2023-11-18T09:33:18;2.90;;;2.70;;
665;SDS011;315;48.738;9.126;2023-11-18T09:35:53;2.67;;;2.43;;
665;SDS011;315;48.738;9.126;2023-11-18T09:38:31;3.00;;;2.80;;
665;SDS011;315;48.738;9.126;2023-11-18T09:41:00;3.40;;;2.57;;
665;SDS011;315;48.738;9.126;2023-11-18T09:43:28;3.73;;;2.40;;
665;SDS011;315;48.738;9.126;2023-11-18T09:46:01;2.30;;;2.07;;
665;SDS011;315;48.738;9.126;2023-11-18T09:48:37;2.63;;;2.43;;
665;SDS011;315;48.738;9.126;2023-11-18T09:51:15;2.40;;;2.13;;
665;SDS011;315;48.738;9.126;2023-11-18T09:53:49;2.70;;;2.13;;
665;SDS011;315;48.738;9.126;2023-11-18T09:56:30;3.27;;;1.77;;
665;SDS011;315;48.738;9.126;2023-11-18T09:59:22;2.53;;;2.30;;
665;SDS011;315;48.738;9.126;2023-11-18T10:01:56;2.83;;;2.20;;
665;SDS011;315;48.738;9.126;2023-11-18T10:04:23;2.20;;;2.00;;
665;SDS011;315;48.738;9.126;2023-11-18T10:06:53;3.73;;;3.43;;
665;SDS011;315;48.738;9.126;2023-11-18T10:09:19;3.30;;;2.17;;
665;SDS011;315;48.738;9.126;2023-11-18T10:11:53;2.23;;;1.60;;
665;SDS011;315;48.738;9.126;2023-11-18T10:14:25;1.73;;;1.63;;
665;SDS011;315;48.738;9.126;2023-11-18T10:16:51;2.70;;;1.90;;
665;SDS011;315;48.738;9.126;2023-11-18T10:19:19;3.03;;;2.20;;
665;SDS011;315;48.738;9.126;2023-11-18T10:21:44;2.00;;;1.80;;
665;SDS011;315;48.738;9.126;2023-11-18T10:24:13;2.10;;;1.90;;
665;SDS011;315;48.738;9.126;2023-11-18T10:26:40;1.77;;;1.67;;
665;SDS011;315;48.738;9.126;2023-11-18T10:29:09;1.80;;;1.63;;
665;SDS011;315;48.738;9.126;2023-11-18T10:31:34;2.43;;;2.20;;
665;SDS011;315;48.738;9.126;2023-11-18T10:34:02;3.03;;;2.77;;
665;SDS011;315;48.738;9.126;2023-11-18T10:36:29;2.87;;;2.20;;
665;SDS011;315;48.738;9.126;2023-11-18T10:38:58;2.30;;;2.10;;
665;SDS011;315;48.738;9.126;2023-11-18T10:41:26;2.10;;;1.43;;
665;SDS011;315;48.738;9.126;2023-11-18T10:44:07;2.20;;;1.70;;
665;SDS011;315;48.738;9.126;2023-11-18T10:46:38;4.23;;;2.10;;
665;SDS011;315;48.738;9.126;2023-11-18T10:49:05;1.90;;;1.73;;
665;SDS011;315;48.738;9.126;2023-11-18T10:51:35;3.67;;;1.87;;
665;SDS011;315;48.738;9.126;2023-11-18T10:54:04;2.40;;;1.90;;
665;SDS011;315;48.738;9.126;2023-11-18T10:56:40;1.83;;;1.73;;
665;SDS011;315;48.738;9.126;2023-11-18T10:59:11;2.63;;;2.13;;
665;SDS011;315;48.738;9.126;2023-11-18T11:01:41;3.30;;;1.83;;
665;SDS011;315;48.738;9.126;2023-11-18T11:04:08;1.77;;;1.67;;
665;SDS011;315;48.738;9.126;2023-11-18T11:06:35;2.57;;;1.63;;
665;SDS011;315;48.738;9.126;2023-11-18T11:09:06;2.63;;;1.50;;
665;SDS011;315;48.738;9.126;2023-11-18T11:11:44;3.20;;;1.87;;
665;SDS011;315;48.738;9.126;2023-11-18T11:14:14;1.90;;;1.70;;
665;SDS011;315;48.738;9.126;2023-11-18T11:16:44;1.60;;;1.50;;
665;SDS011;315;48.738;9.126;2023-11-18T11:22:04;3.33;;;1.80;;
665;SDS011;315;48.738;9.126;2023-11-18T11:27:34;3.00;;;2.10;;
665;SDS011;315;48.738;9.126;2023-11-18T11:33:05;2.97;;;2.10;;
665;SDS011;315;48.738;9.126;2023-11-18T11:35:48;1.63;;;1.53;;
665;SDS011;315;48.738;9.126;2023-11-18T11:38:22;1.87;;;1.57;;
665;SDS011;315;48.738;9.126;2023-11-18T11:40:49;1.53;;;1.43;;
665;SDS011;315;48.738;9.126;2023-11-18T11:43:17;4.93;;;1.83;;
665;SDS011;315;48.738;9.126;2023-11-18T11:45:55;2.20;;;1.20;;
665;SDS011;315;48.738;9.126;2023-11-18T11:48:24;2.53;;;1.33;;
665;SDS011;315;48.738;9.126;2023-11-18T11:53:47;2.37;;;1.40;;
665;SDS011;315;48.738;9.126;2023-11-18T11:56:43;3.77;;;1.53;;
665;SDS011;315;48.738;9.126;2023-11-18T11:59:12;1.47;;;1.37;;
665;SDS011;315;48.738;9.126;2023-11-18T12:01:40;4.10;;;1.40;;
665;SDS011;315;48.738;9.126;2023-11-18T12:04:12;4.00;;;1.43;;
665;SDS011;315;48.738;9.126;2023-11-18T12:06:48;1.50;;;1.40;;
665;SDS011;315;48.738;9.126;2023-11-18T12:09:18;5.90;;;2.30;;
665;SDS011;315;48.738;9.126;2023-11-18T12:11:47;1.70;;;1.60;;
665;SDS011;315;48.738;9.126;2023-11-18T12:14:15;2.30;;;1.83;;
665;SDS011;315;48.738;9.126;2023-11-18T12:17:05;2.90;;;1.60;;
665;SDS011;315;48.738;9.126;2023-11-18T12:19:35;2.90;;;1.87;;
665;SDS011;315;48.738;9.126;2023-11-18T12:22:17;3.03;;;1.70;;
665;SDS011;315;48.738;9.126;2023-11-18T12:24:44;3.43;;;2.37;;
665;SDS011;315;48.738;9.126;2023-11-18T12:27:12;2.20;;;1.77;;
665;SDS011;315;48.738;9.126;2023-11-18T12:29:44;2.60;;;1.93;;
665;SDS011;315;48.738;9.126;2023-11-18T12:32:09;2.90;;;1.90;;
665;SDS011;315;48.738;9.126;2023-11-18T12:34:50;3.63;;;2.07;;
665;SDS011;315;48.738;9.126;2023-11-18T12:42:59;2.10;;;1.70;;
665;SDS011;315;48.738;9.126;2023-11-18T12:45:41;2.83;;;1.83;;
665;SDS011;315;48.738;9.126;2023-11-18T12:48:40;3.70;;;1.67;;
665;SDS011;315;48.738;9.126;2023-11-18T12:51:08;3.10;;;1.63;;
665;SDS011;315;48.738;9.126;2023-11-18T12:53:44;2.17;;;1.87;;
665;SDS011;315;48.738;9.126;2023-11-18T12:56:14;2.37;;;1.60;;
665;SDS011;315;48.738;9.126;2023-11-18T12:58:48;2.20;;;1.87;;
665;SDS011;315;48.738;9.126;2023-11-18T13:01:14;3.17;;;2.40;;
665;SDS011;315;48.738;9.126;2023-11-18T13:03:40;3.67;;;2.80;;
665;SDS011;315;48.738;9.126;2023-11-18T13:06:10;5.80;;;2.10;;
665;SDS011;315;48.738;9.126;2023-11-18T13:08:39;7.90;;;5.20;;
665;SDS011;315;48.738;9.126;2023-11-18T13:11:07;4.23;;;3.83;;
665;SDS011;315;48.738;9.126;2023-11-18T13:13:40;2.73;;;2.00;;
665;SDS011;315;48.738;9.126;2023-11-18T13:16:09;3.47;;;2.90;;
665;SDS011;315;48.738;9.126;2023-11-18T13:21:13;6.30;;;1.93;;
665;SDS011;315;48.738;9.126;2023-11-18T13:23:40;3.10;;;2.40;;
665;SDS011;315;48.738;9.126;2023-11-18T13:26:06;3.30;;;2.67;;
665;SDS011;315;48.738;9.126;2023-11-18T13:28:34;3.80;;;2.40;;
665;SDS011;315;48.738;9.126;2023-11-18T13:31:00;2.90;;;2.60;;
665;SDS011;315;48.738;9.126;2023-11-18T13:33:26;3.10;;;2.80;;
665;SDS011;315;48.738;9.126;2023-11-18T13:35:52;5.13;;;3.00;;
665;SDS011;315;48.738;9.126;2023-11-18T13:38:18;3.70;;;3.13;;
665;SDS011;315;48.738;9.126;2023-11-18T13:40:44;3.60;;;2.63;;
665;SDS011;315;48.738;9.126;2023-11-18T13:43:11;3.73;;;3.27;;
665;SDS011;315;48.738;9.126;2023-11-18T13:45:37;3.77;;;3.47;;
665;SDS011;315;48.738;9.126;2023-11-18T13:48:04;3.17;;;2.97;;
665;SDS011;315;48.738;9.126;2023-11-18T13:50:30;2.60;;;2.40;;
665;SDS011;315;48.738;9.126;2023-11-18T13:52:58;3.20;;;2.90;;
665;SDS011;315;48.738;9.126;2023-11-18T13:55:25;3.13;;;2.90;;
665;SDS011;315;48.738;9.126;2023-11-18T13:57:56;3.27;;;2.53;;
665;SDS011;315;48.738;9.126;2023-11-18T14:00:23;4.13;;;3.50;;
665;SDS011;315;48.738;9.126;2023-11-18T14:02:52;3.07;;;2.77;;
665;SDS011;315;48.738;9.126;2023-11-18T14:05:20;3.47;;;2.77;;
665;SDS011;315;48.738;9.126;2023-11-18T14:07:47;2.80;;;2.60;;
665;SDS011;315;48.738;9.126;2023-11-18T14:10:13;4.47;;;3.03;;
665;SDS011;315;48.738;9.126;2023-11-18T14:12:39;3.60;;;3.30;;
665;SDS011;315;48.738;9.126;2023-11-18T14:15:05;5.27;;;2.87;;
665;SDS011;315;48.738;9.126;2023-11-18T14:17:35;3.90;;;3.53;;
665;SDS011;315;48.738;9.126;2023-11-18T14:20:01;4.20;;;3.73;;
665;SDS011;315;48.738;9.126;2023-11-18T14:22:27;4.90;;;4.37;;
665;SDS011;315;48.738;9.126;2023-11-18T14:24:53;5.20;;;4.37;;
665;SDS011;315;48.738;9.126;2023-11-18T14:27:18;4.40;;;4.00;;
665;SDS011;315;48.738;9.126;2023-11-18T14:29:44;3.20;;;2.90;;
665;SDS011;315;48.738;9.126;2023-11-18T14:32:11;4.57;;;3.40;;
665;SDS011;315;48.738;9.126;2023-11-18T14:34:37;5.87;;;3.37;;
665;SDS011;315;48.738;9.126;2023-11-18T14:37:03;4.90;;;3.50;;
665;SDS011;315;48.738;9.126;2023-11-18T14:39:31;6.10;;;3.97;;
665;SDS011;315;48.738;9.126;2023-11-18T14:41:57;5.87;;;3.73;;
665;SDS011;315;48.738;9.126;2023-11-18T14:44:24;3.70;;;3.20;;
665;SDS011;315;48.738;9.126;2023-11-18T14:46:50;4.33;;;3.90;;
665;SDS011;315;48.738;9.126;2023-11-18T14:49:16;4.50;;;3.50;;
665;SDS011;315;48.738;9.126;2023-11-18T14:51:43;3.70;;;3.40;;
665;SDS011;315;48.738;9.126;2023-11-18T14:54:08;5.90;;;3.80;;
665;SDS011;315;48.738;9.126;2023-11-18T14:56:34;4.30;;;3.90;;
665;SDS011;315;48.738;9.126;2023-11-18T14:58:59;4.87;;;3.47;;
665;SDS011;315;48.738;9.126;2023-11-18T15:01:25;3.80;;;3.50;;
665;SDS011;315;48.738;9.126;2023-11-18T15:03:51;6.73;;;4.00;;
665;SDS011;315;48.738;9.126;2023-11-18T15:06:24;4.00;;;3.40;;
665;SDS011;315;48.738;9.126;2023-11-18T15:08:50;6.63;;;4.40;;
665;SDS011;315;48.738;9.126;2023-11-18T15:11:20;5.60;;;4.47;;
665;SDS011;315;48.738;9.126;2023-11-18T15:13:46;4.63;;;4.00;;
665;SDS011;315;48.738;9.126;2023-11-18T15:16:12;5.10;;;4.60;;
665;SDS011;315;48.738;9.126;2023-11-18T15:18:38;8.23;;;4.50;;
665;SDS011;315;48.738;9.126;2023-11-18T15:21:03;7.43;;;5.27;;
665;SDS011;315;48.738;9.126;2023-11-18T15:23:29;5.40;;;4.60;;
665;SDS011;315;48.738;9.126;2023-11-18T15:25:54;4.60;;;4.17;;
665;SDS011;315;48.738;9.126;2023-11-18T15:28:21;4.97;;;4.43;;
665;SDS011;315;48.738;9.126;2023-11-18T15:30:47;6.87;;;6.27;;
665;SDS011;315;48.738;9.126;2023-11-18T15:33:13;5.80;;;5.20;;
665;SDS011;315;48.738;9.126;2023-11-18T15:35:39;4.90;;;4.40;;
665;SDS011;315;48.738;9.126;2023-11-18T15:38:08;5.43;;;4.93;;
665;SDS011;315;48.738;9.126;2023-11-18T15:40:41;5.53;;;5.03;;
665;SDS011;315;48.738;9.126;2023-11-18T15:43:07;6.10;;;5.50;;
665;SDS011;315;48.738;9.126;2023-11-18T15:45:32;6.60;;;6.00;;
665;SDS011;315;48.738;9.126;2023-11-18T15:47:59;8.70;;;7.50;;
665;SDS011;315;48.738;9.126;2023-11-18T15:50:25;12.17;;;5.70;;
665;SDS011;315;48.738;9.126;2023-11-18T15:52:54;6.70;;;5.00;;
665;SDS011;315;48.738;9.126;2023-11-18T15:55:20;5.70;;;5.20;;
665;SDS011;315;48.738;9.126;2023-11-18T15:57:47;6.60;;;5.90;;
665;SDS011;315;48.738;9.126;2023-11-18T16:00:17;5.80;;;4.53;;
665;SDS011;315;48.738;9.126;2023-11-18T16:02:49;8.20;;;6.10;;
665;SDS011;315;48.738;9.126;2023-11-18T16:05:16;6.90;;;6.30;;
665;SDS011;315;48.738;9.126;2023-11-18T16:07:43;5.87;;;4.77;;
665;SDS011;315;48.738;9.126;2023-11-18T16:10:10;5.57;;;5.00;;
665;SDS011;315;48.738;9.126;2023-11-18T16:12:42;5.43;;;4.87;;
665;SDS011;315;48.738;9.126;2023-11-18T16:15:30;7.83;;;5.70;;
665;SDS011;315;48.738;9.126;2023-11-18T16:17:58;5.33;;;4.93;;